createdAt,value
2019-02-18T00:00:54.649Z,98781.89
2019-02-18T00:07:20.458Z,98775.91
2019-02-18T00:17:38.583Z,98770.02
2019-02-18T00:24:22.585Z,98762.52
2019-02-18T00:30:50.423Z,98766.11
2019-02-18T00:36:38.869Z,98758.37
2019-02-18T00:43:15.550Z,98760.70
2019-02-18T00:49:41.478Z,98762.55
2019-02-18T00:56:08.450Z,98760.89
2019-02-18T01:02:34.270Z,98765.34
2019-02-18T01:09:13.218Z,98763.67
2019-02-18T01:19:12.950Z,98765.14
2019-02-18T01:25:39.621Z,98764.20
2019-02-18T01:32:07.518Z,98762.65
2019-02-18T01:38:48.801Z,98761.95
2019-02-18T01:45:14.370Z,98754.23
2019-02-18T01:51:40.219Z,98765.20
2019-02-18T01:58:06.895Z,98762.39
2019-02-18T02:04:46.224Z,98755.37
2019-02-18T02:11:14.067Z,98753.02
2019-02-18T02:21:15.009Z,98744.81
2019-02-18T02:27:42.857Z,98740.00
2019-02-18T02:34:25.595Z,98737.55
2019-02-18T02:40:51.443Z,98727.65
2019-02-18T02:47:19.342Z,98723.23
2019-02-18T02:53:59.115Z,98720.15
2019-02-18T03:00:25.289Z,98717.20
2019-02-18T03:06:52.860Z,98714.53
2019-02-18T03:13:20.773Z,98708.44
2019-02-18T03:26:00.486Z,98707.77
2019-02-18T03:32:28.323Z,98701.41
2019-02-18T03:38:55.970Z,98701.86
2019-02-18T03:45:32.879Z,98707.40
2019-02-18T03:51:59.553Z,98707.95
2019-02-18T03:58:27.762Z,98710.91
2019-02-18T04:05:10.753Z,98711.41
2019-02-18T04:11:36.573Z,98713.85
2019-02-18T04:18:02.199Z,98711.73
2019-02-18T04:28:16.486Z,98722.97
2019-02-18T04:34:42.303Z,98712.74
2019-02-18T04:41:25.920Z,98716.98
2019-02-18T04:47:50.956Z,98716.07
2019-02-18T04:54:17.929Z,98718.27
2019-02-18T05:00:58.902Z,98717.11
2019-02-18T05:07:34.819Z,98708.05
2019-02-18T05:14:01.655Z,98702.36
2019-02-18T05:20:41.160Z,98700.67
2019-02-18T05:30:46.599Z,98696.41
2019-02-18T05:37:06.266Z,98691.81
2019-02-18T05:43:34.979Z,98699.16
2019-02-18T05:50:25.275Z,98694.44
2019-02-18T05:56:58.166Z,98689.14
2019-02-18T06:03:30.097Z,98690.84
2019-02-18T06:10:04.953Z,98691.00
2019-02-18T06:16:43.911Z,98689.05
2019-02-18T06:23:12.346Z,98687.86
2019-02-18T06:33:28.471Z,98687.61
2019-02-18T06:39:17.302Z,98687.23
2019-02-18T06:46:14.429Z,98695.14
2019-02-18T06:52:39.243Z,98692.32
2019-02-18T06:59:17.941Z,98697.34
2019-02-18T07:06:13.303Z,98704.79
2019-02-18T07:12:57.147Z,98705.16
2019-02-18T07:19:26.154Z,98709.47
2019-02-18T07:25:51.976Z,98705.87
2019-02-18T07:36:09.867Z,98697.14
2019-02-18T07:42:58.599Z,98696.39
2019-02-18T07:49:24.447Z,98695.30
2019-02-18T07:56:04.632Z,98689.14
2019-02-18T08:02:33.352Z,98689.05
2019-02-18T08:09:01.250Z,98690.95
2019-02-18T08:15:29.464Z,98694.55
2019-02-18T08:22:03.403Z,98687.00
2019-02-18T08:28:41.306Z,98684.38
2019-02-18T08:37:55.796Z,98673.41
2019-02-18T08:44:21.382Z,98668.56
2019-02-18T08:50:50.095Z,98667.09
2019-02-18T08:57:15.942Z,98662.34
2019-02-18T09:03:55.236Z,98656.58
2019-02-18T09:10:32.750Z,98658.13
2019-02-18T09:16:50.930Z,98650.02
2019-02-18T09:23:42.776Z,98659.47
2019-02-18T09:30:08.611Z,98649.38
2019-02-18T09:39:45.536Z,98642.68
2019-02-18T09:50:03.439Z,98634.09
2019-02-18T09:56:32.163Z,98638.23
2019-02-18T10:03:02.365Z,98632.12
2019-02-18T10:09:39.296Z,98618.97
2019-02-18T10:16:05.119Z,98621.36
2019-02-18T10:22:36.997Z,98604.48
2019-02-18T10:29:16.637Z,98600.51
2019-02-18T10:35:18.315Z,98592.40
2019-02-18T10:41:47.032Z,98593.75
2019-02-18T10:52:07.179Z,98582.44
2019-02-18T10:58:33.347Z,98559.11
2019-02-18T11:05:10.275Z,98552.02
2019-02-18T11:11:39.891Z,98547.36
2019-02-18T11:18:05.731Z,98536.66
2019-02-18T11:24:48.948Z,98525.34
2019-02-18T11:31:14.632Z,98508.73
2019-02-18T11:37:43.615Z,98484.46
2019-02-18T11:44:26.406Z,98486.11
2019-02-18T11:54:16.239Z,98464.23
2019-02-18T12:00:42.908Z,98454.30
2019-02-18T12:07:09.093Z,98445.36
2019-02-18T12:13:34.916Z,98443.56
2019-02-18T12:20:13.923Z,98421.05
2019-02-18T12:26:39.681Z,98411.03
2019-02-18T12:33:03.496Z,98403.52
2019-02-18T12:39:46.270Z,98385.66
2019-02-18T12:56:28.168Z,98357.61
2019-02-18T13:02:54.019Z,98358.48
2019-02-18T13:09:22.061Z,98354.66
2019-02-18T13:16:03.030Z,98351.27
2019-02-18T13:21:53.504Z,98347.47
2019-02-18T13:28:19.322Z,98337.38
2019-02-18T13:34:55.893Z,98335.09
2019-02-18T13:41:24.097Z,98323.40
2019-02-18T13:47:49.912Z,98322.91
2019-02-18T13:57:54.905Z,98302.56
2019-02-18T14:04:26.792Z,98290.20
2019-02-18T14:11:04.723Z,98294.94
2019-02-18T14:17:35.635Z,98288.18
2019-02-18T14:24:00.148Z,98275.91
2019-02-18T14:30:37.337Z,98277.22
2019-02-18T14:37:02.910Z,98271.75
2019-02-18T14:43:28.759Z,98275.55
2019-02-18T14:49:57.474Z,98279.41
2019-02-18T14:59:25.444Z,98273.48
2019-02-18T15:06:02.373Z,98267.73
2019-02-18T15:12:33.055Z,98273.58
2019-02-18T15:18:56.667Z,98265.33
2019-02-18T15:25:35.992Z,98267.09
2019-02-18T15:32:00.662Z,98266.59
2019-02-18T15:38:29.657Z,98268.44
2019-02-18T15:44:55.475Z,98267.63
2019-02-18T15:51:34.177Z,98264.69
2019-02-18T16:01:35.372Z,98260.04
2019-02-18T16:08:01.194Z,98261.34
2019-02-18T16:14:26.775Z,98259.39
2019-02-18T16:21:03.947Z,98251.81
2019-02-18T16:27:40.591Z,98253.23
2019-02-18T16:34:06.446Z,98252.22
2019-02-18T16:40:47.459Z,98256.08
2019-02-18T16:44:22.793Z,98259.00
2019-02-18T16:50:49.628Z,98258.11
2019-02-18T16:57:14.191Z,98262.52
2019-02-18T17:03:44.145Z,98282.56
2019-02-18T17:10:10.810Z,98272.61
2019-02-18T17:16:48.052Z,98279.55
2019-02-18T17:23:15.895Z,98293.02
2019-02-18T17:29:41.462Z,98299.94
2019-02-18T17:36:20.467Z,98305.80
2019-02-18T17:42:48.504Z,98307.29
2019-02-18T17:49:14.987Z,98306.48
2019-02-18T17:55:41.156Z,98302.91
2019-02-18T18:05:44.656Z,98305.32
2019-02-18T18:12:24.788Z,98319.23
2019-02-18T18:18:50.924Z,98325.20
2019-02-18T18:25:16.486Z,98317.50
2019-02-18T18:31:55.442Z,98321.14
2019-02-18T18:38:26.213Z,98324.93
2019-02-18T18:44:52.373Z,98322.92
2019-02-18T18:51:28.975Z,98316.55
2019-02-18T18:57:55.129Z,98323.45
2019-02-18T19:08:12.924Z,98316.06
2019-02-18T19:14:38.768Z,98322.30
2019-02-18T19:21:04.884Z,98323.81
2019-02-18T19:27:45.617Z,98324.72
2019-02-18T19:34:11.675Z,98337.42
2019-02-18T19:40:38.503Z,98337.92
2019-02-18T19:47:17.460Z,98345.90
2019-02-18T19:53:07.722Z,98345.09
2019-02-18T19:59:31.527Z,98345.62
2019-02-18T20:09:33.240Z,98348.78
2019-02-18T20:15:58.264Z,98363.07
2019-02-18T20:22:39.463Z,98364.72
2019-02-18T20:29:08.314Z,98363.11
2019-02-18T20:35:38.178Z,98367.31
2019-02-18T20:42:22.172Z,98362.55
2019-02-18T20:48:49.702Z,98364.40
2019-02-18T20:55:19.650Z,98354.83
2019-02-18T21:01:58.608Z,98355.32
2019-02-18T21:08:12.533Z,98359.06
2019-02-18T21:14:38.359Z,98358.32
2019-02-18T21:21:04.173Z,98366.01
2019-02-18T21:27:43.123Z,98359.08
2019-02-18T21:34:08.945Z,98360.22
2019-02-18T21:40:34.523Z,98358.86
2019-02-18T21:47:14.308Z,98362.58
2019-02-18T21:53:39.338Z,98357.88
2019-02-18T22:00:10.106Z,98365.16
2019-02-18T22:06:36.256Z,98367.84
2019-02-18T22:13:00.023Z,98366.75
2019-02-18T22:19:25.607Z,98365.26
2019-02-18T22:25:56.365Z,98366.06
2019-02-18T22:32:35.328Z,98363.40
2019-02-18T22:38:37.003Z,98362.23
2019-02-18T22:45:02.860Z,98354.63
2019-02-18T22:51:26.656Z,98358.22
2019-02-18T22:58:03.792Z,98361.06
2019-02-18T23:04:27.365Z,98368.48
2019-02-18T23:14:28.543Z,98367.58
2019-02-18T23:20:56.380Z,98366.41
2019-02-18T23:27:22.203Z,98359.12
2019-02-18T23:33:59.132Z,98351.65
2019-02-18T23:40:25.959Z,98359.77
2019-02-18T23:46:53.481Z,98363.23
2019-02-18T23:53:34.774Z,98363.05
